ADDS METAR Data INFO
IDs: Format: Raw Decoded Include TAF

Data at: 0751 UTC 23 Jul 2018

KFAY 230747Z 06007KT 10SM TS FEW008 OVC013 23/21 A2977 RMK AO2 LTG DSNT SW RAE47 TSB35 P0015
KFAY 230735Z 02009G15KT 7SM -TSRA BKN017 OVC022 23/22 A2977 RMK AO2 LTG DSNT N TSB35 P0015 T02330217
KFAY 230721Z 36009KT 2 1/2SM -RA BR FEW008 OVC016 23/21 A2977 RMK AO2 LTG DSNT N AND NE P0011 T02280211
KFAY 230708Z 02008KT 10SM -RA OVC016 23/21 A2978 RMK AO2 LTG DSNT N P0000 T02330211
KFAY 230653Z 02010KT 10SM VCTS -RA OVC014 23/21 A2977 RMK AO2 WSHFT 0623 LTG DSNT N RAB32 TSE03 SLP075 P0001 T02330211
KFAY 230651Z 03007KT 10SM -RA OVC014 24/21 A2978 RMK AO2 WSHFT 0623 LTG DSNT N RAB32 TSE03 P0001
KFAY 230637Z 28010KT 10SM VCTS -RA SCT007 OVC016 24/21 A2977 RMK AO2 WSHFT 0623 LTG DSNT N RAB32 TSE03 P0000 T02440211
KFAY 230609Z 14004KT 8SM VCTS OVC007 26/24 A2977 RMK AO2 LTG DSNT NW-NE TSE03 CIG 005V012 T02560239
KFAY 230553Z 13006KT 8SM TS BKN007 OVC015 26/24 A2977 RMK AO2 LTG DSNT SW-N TSB48 CIG 005V012 SLP076 T02560239 10300 20256 58004
KFAY 230548Z 12007KT 8SM TS BKN007 OVC013 26/24 A2978 RMK AO2 LTG DSNT SW-N TSB48
KFAY 230540Z 10007KT 8SM VCTS SCT007 BKN012 OVC017 26/24 A2978 RMK AO2 LTG DSNT N AND NW T02560239
KFAY 230533Z 10007KT 9SM BKN009 OVC014 26/24 A2978 RMK AO2 LTG DSNT N AND NW CIG 008V013 T02560239
KFAY 230520Z 12006KT 9SM BKN012 BKN019 26/24 A2979 RMK AO2 LTG DSNT N AND NW T02560239
KFAY 230453Z 15005KT 10SM CLR 26/24 A2979 RMK AO2 LTG DSNT NW SLP081 T02560239 403390206
KFAY 230353Z 14005KT 10SM SCT017 SCT028 26/23 A2978 RMK AO2 SLP079 T02610233
KFAY 230253Z 15004KT 10SM BKN017 27/23 A2979 RMK AO2 SLP080 T02670233 51009
KFAY 230250Z 15005KT 10SM SCT017 27/23 A2979 RMK AO2
KFAY 230227Z 15007KT 10SM BKN019 27/23 A2980 RMK AO2 T02720233
KFAY 230153Z 14007KT 10SM CLR 27/23 A2977 RMK AO2 SLP076 T02720233
KFAY 230053Z 15007KT 10SM CLR 28/23 A2976 RMK AO2 SLP070 T02830228
KFAY 222353Z 16014KT 10SM FEW037 FEW070 30/22 A2973 RMK AO2 SLP061 60001 T03000217 10339 20300 53004
KFAY 222253Z 17009KT 10SM CLR 31/19 A2971 RMK AO2 SLP055 T03110189
KFAY 222153Z 17009KT 10SM SCT050 BKN070 BKN080 33/19 A2971 RMK AO2 RAB2056E11 SLP053 P0001 T03280194
KFAY 222053Z 20008KT 10SM BKN055 BKN070 OVC090 32/20 A2972 RMK AO2 SLP056 T03220200 55008
KFAY 221953Z 18011KT 10SM CLR 33/19 A2971 RMK AO2 SLP055 T03330194
KFAY 221853Z 19006G16KT 10SM FEW049 33/19 A2972 RMK AO2 SLP056 T03280189
KFAY 221753Z 17010KT 10SM FEW043 32/20 A2974 RMK AO2 SLP065 T03220200 10322 20217 58010
KFAY 221653Z 19011KT 10SM CLR 32/20 A2976 RMK AO2 SLP071 T03170200
KFAY 221553Z 18010KT 10SM CLR 30/19 A2977 RMK AO2 SLP073 T03000194
KFAY 221453Z 20009KT 10SM CLR 28/20 A2977 RMK AO2 SLP075 T02830200 51005
KFAY 221353Z 19008KT 10SM FEW012 26/22 A2977 RMK AO2 SLP073 T02610217
KFAY 221253Z 17006KT 10SM SCT015 24/21 A2976 RMK AO2 SLP072 T02390211
KFAY 221153Z 12006KT 10SM SCT015 22/20 A2976 RMK AO2 SLP070 60056 70056 T02170200 10239 20206 51007
KFAY 221053Z 09003KT 10SM BKN110 21/19 A2976 RMK AO2 RAE24 TSE0959 SLP069 P0001 T02060194
KFAY 221005Z 03005KT 10SM -RA SCT031 BKN100 BKN110 21/19 A2974 RMK AO2 LTG DSNT N AND NE TSE0959 P0001 T02060194
KFAY 220953Z 36003KT 3SM -TSRA BR FEW007 BKN032 OVC110 21/19 A2975 RMK AO2 PK WND 20035/0933 WSHFT 0923 LTG DSNT N AND NE RAE02B16 TSB14 SLP067 P0055 T02110194
KFAY 220950Z 33006KT 2SM TSRA BR FEW007 BKN030 OVC100 21/19 A2974 RMK AO2 PK WND 20035/0933 WSHFT 0923 LTG DSNT N AND NE RAE02B16 TSB14 P0055
KFAY 220937Z 21018G35KT 1 1/4SM +TSRA BR SCT007 OVC021 21/19 A2977 RMK AO2 PK WND 20035/0933 WSHFT 0923 LTG DSNT ALQDS RAE02B16 TSB14 P0037 T02110194
KFAY 220934Z 20026G35KT 1 3/4SM +TSRA BR BKN007 OVC023 21/19 A2978 RMK AO2 PK WND 20035/0933 VIS 3/4V5 LTG DSNT ALQDS RAE02B16 TSB14 PRESRR P0028 T02110194
KFAY 220932Z 20025G34KT 3SM TSRA BR BKN007 OVC023 22/21 A2978 RMK AO2 PK WND 20034/0931 LTG DSNT ALQDS RAE02B16 TSB14 PRESRR P0020 T02220206
KFAY 220924Z 16011G15KT 2 1/2SM -TSRA BR BKN007 OVC023 24/22 A2973 RMK AO2 LTG DSNT ALQDS RAE02B16 TSB14 P0012 T02390222
KFAY 220914Z 16004KT 9SM TS BKN007 OVC020 23/21 A2973 RMK AO2 LTG DSNT ALQDS RAE02 TSB14 P0001 T02330211
KFAY 220911Z 15003KT 10SM BKN007 OVC020 23/21 A2973 RMK AO2 LTG DSNT SW-N RAE02 P0000 T02330211
KFAY 220858Z 16004KT 10SM VCTS -RA FEW007 BKN020 OVC038 23/21 A2973 RMK AO2 LTG DSNT SW-N P0000 T02330211
KFAY 220853Z 15005KT 9SM -RA BKN020 OVC039 23/21 A2974 RMK AO2 LTG DSNT SW-N RAB50 SLP062 P0000 60000 T02330211 56012
KFAY 220837Z 15003KT 10SM SCT018 BKN039 OVC050 23/21 A2974 RMK AO2 LTG DSNT SW-N T02330211
KFAY 220753Z 12004KT 10SM BKN017 23/21 A2974 RMK AO2 SLP063 T02280206
KFAY 220653Z 09006KT 10SM FEW019 22/20 A2974 RMK AO2 SLP065 T02220200
KFAY 220553Z 05004KT 10SM FEW023 SCT042 BKN049 23/20 A2977 RMK AO2 LTG DSNT N AND NE SLP075 60000 T02280200 10311 20228 55000
KFAY 220453Z 33007KT 10SM CLR 24/21 A2977 RMK AO2 LTG DSNT W-N SLP075 T02390206 403440217
KFAY 220353Z 00000KT 10SM FEW037 24/21 A2977 RMK AO2 LTG DSNT NW RAE0256 SLP074 P0000 T02440211
KFAY 220351Z 00000KT 10SM FEW037 24/21 A2977 RMK AO2 LTG DSNT NW RAE0256 P0000
KFAY 220323Z 36004KT 10SM VCTS FEW110 25/22 A2977 RMK AO2 LTG DSNT N AND NW RAE0256 P0000 T02500222
KFAY 220253Z 26006KT 10SM -RA FEW080 FEW090 BKN120 27/21 A2978 RMK AO2 LTG DSNT W-N RAB30 SLP078 P0000 60000 T02720211 53016
KFAY 220225Z 20003KT 10SM FEW120 28/20 A2977 RMK AO2 LTG DSNT W-N T02780200
KFAY 220210Z 16004KT 10SM VCTS CLR 28/21 A2976 RMK AO2 LTG DSNT W AND NW T02780206
KFAY 220153Z 12005KT 10SM FEW070 27/21 A2975 RMK AO2 LTG DSNT W AND NW SLP067 T02720206
KFAY 220053Z 05006KT 10SM FEW095 28/21 A2974 RMK AO2 SLP065 T02830206
KFAY 212353Z 21005KT 10SM SCT070 31/17 A2973 RMK AO2 SLP062 T03110172 10344 20306 52001
KFAY 212253Z 19007KT 10SM BKN070 32/17 A2973 RMK AO2 SLP061 T03220172
KFAY 212153Z 26007G19KT 10SM BKN060 33/17 A2973 RMK AO2 SLP061 T03280167
KFAY 212053Z 26009KT 10SM FEW060 SCT080 34/16 A2973 RMK AO2 SLP060 T03390161 56019
KFAY 211953Z 31008KT 10SM FEW048 32/18 A2974 RMK AO2 SLP064 T03220183